Time;durP1;ratioP1;P1;durP2;ratioP2;P2;SDS_P1;SDS_P2;PMS_P1;PMS_P2;Temp;Humidity;BMP_temperature;BMP_pressure;BME280_temperature;BME280_humidity;BME280_pressure;Samples;Min_cycle;Max_cycle;Signal;HPM_P1;HPM_P2
2022/06/27 00:01:22;;;;;;;2.30;2.10;;;28.10;49.10;;;;;;6117868;23;20401;-84
2022/06/27 00:03:48;;;;;;;3.00;2.70;;;28.10;49.00;;;;;;6117660;23;20216;-84
2022/06/27 00:06:14;;;;;;;2.37;2.20;;;28.10;49.10;;;;;;6092955;23;20484;-84
2022/06/27 00:08:40;;;;;;;2.47;2.27;;;28.10;49.10;;;;;;6117349;23;20158;-84
2022/06/27 00:11:06;;;;;;;2.60;2.40;;;28.10;49.10;;;;;;6117521;23;20385;-84
2022/06/27 00:13:31;;;;;;;2.37;2.17;;;28.10;49.00;;;;;;6117304;23;20891;-84
2022/06/27 00:15:57;;;;;;;2.33;2.13;;;28.10;49.10;;;;;;6117609;23;20451;-85
2022/06/27 00:18:23;;;;;;;2.63;2.43;;;28.10;49.10;;;;;;6117681;23;20164;-85
2022/06/27 00:20:51;;;;;;;2.50;2.30;;;28.10;49.10;;;;;;6118570;23;20397;-84
2022/06/27 00:23:17;;;;;;;2.57;2.37;;;28.10;49.10;;;;;;6116941;23;20156;-84
2022/06/27 00:25:43;;;;;;;2.27;2.17;;;28.10;49.10;;;;;;6092200;23;20386;-84
2022/06/27 00:28:09;;;;;;;2.70;2.50;;;28.10;49.20;;;;;;6117457;23;20380;-84
2022/06/27 00:30:34;;;;;;;2.40;2.20;;;28.10;49.10;;;;;;6116245;23;20177;-84
2022/06/27 00:33:01;;;;;;;2.90;2.70;;;28.10;49.20;;;;;;6117203;23;20174;-84
2022/06/27 00:35:27;;;;;;;2.07;1.87;;;28.10;49.30;;;;;;6116842;23;20476;-84
2022/06/27 00:37:53;;;;;;;4.03;2.40;;;28.10;49.20;;;;;;6116778;23;20173;-85
2022/06/27 00:40:18;;;;;;;2.97;2.77;;;28.10;49.30;;;;;;6115341;23;20150;-85
2022/06/27 00:42:51;;;;;;;2.80;2.50;;;28.10;49.30;;;;;;6115081;23;20247;-84
2022/06/27 00:45:17;;;;;;;2.80;2.60;;;28.10;49.30;;;;;;6115189;23;20160;-84
2022/06/27 00:47:44;;;;;;;2.50;2.30;;;28.00;49.20;;;;;;6115167;23;20378;-84
2022/06/27 00:50:10;;;;;;;2.60;2.40;;;28.00;49.20;;;;;;6114652;23;20169;-84
2022/06/27 00:52:37;;;;;;;2.80;2.60;;;28.00;49.20;;;;;;6114297;23;20385;-84
2022/06/27 00:55:06;;;;;;;2.80;2.30;;;28.00;49.20;;;;;;6116073;23;20421;-84
2022/06/27 00:57:33;;;;;;;2.93;2.73;;;28.00;49.20;;;;;;6116622;23;20376;-84
2022/06/27 00:59:59;;;;;;;2.87;2.67;;;28.00;49.30;;;;;;6115914;23;20389;-84
2022/06/27 01:02:25;;;;;;;3.00;2.80;;;28.00;49.40;;;;;;6115634;23;20457;-84
2022/06/27 01:04:50;;;;;;;2.77;2.57;;;28.00;49.40;;;;;;6116194;23;20157;-85
2022/06/27 01:07:17;;;;;;;2.90;2.70;;;28.00;49.40;;;;;;6115532;23;20165;-85
2022/06/27 01:09:43;;;;;;;2.90;2.50;;;28.00;49.40;;;;;;6116040;23;20150;-85
2022/06/27 01:12:10;;;;;;;2.60;2.40;;;28.00;49.40;;;;;;6116451;23;20380;-85
2022/06/27 01:14:37;;;;;;;3.03;2.83;;;28.00;49.40;;;;;;6115649;23;20414;-85
2022/06/27 01:17:03;;;;;;;2.80;2.60;;;28.00;50.00;;;;;;6115736;23;20442;-85
2022/06/27 01:19:29;;;;;;;2.93;2.73;;;28.00;49.60;;;;;;6116887;23;20377;-84
2022/06/27 01:21:57;;;;;;;2.80;2.60;;;28.00;49.60;;;;;;6115900;23;20382;-85
2022/06/27 01:24:25;;;;;;;3.33;3.13;;;28.00;49.60;;;;;;6115458;23;20240;-85
2022/06/27 01:26:51;;;;;;;2.70;2.50;;;28.00;49.60;;;;;;6114742;23;20396;-85
2022/06/27 01:29:18;;;;;;;3.13;2.93;;;28.00;49.70;;;;;;6116710;23;20432;-85
2022/06/27 01:31:45;;;;;;;2.83;2.63;;;27.90;49.80;;;;;;6113966;23;20386;-85
2022/06/27 01:34:11;;;;;;;4.33;2.67;;;27.90;49.70;;;;;;6114981;23;20424;-85
2022/06/27 01:36:43;;;;;;;2.70;2.50;;;27.90;49.70;;;;;;6113834;23;20414;-85
2022/06/27 01:39:17;;;;;;;2.70;2.50;;;27.90;49.80;;;;;;6114861;23;20384;-85
2022/06/27 01:41:46;;;;;;;3.03;2.73;;;27.90;49.80;;;;;;6114379;23;20402;-85
2022/06/27 01:44:12;;;;;;;3.00;2.80;;;27.90;49.80;;;;;;6114411;23;20525;-85
2022/06/27 01:46:51;;;;;;;3.10;2.80;;;27.90;49.90;;;;;;6114813;23;20374;-85
2022/06/27 01:49:18;;;;;;;2.77;2.57;;;27.90;50.00;;;;;;6116147;23;20362;-85
2022/06/27 01:51:47;;;;;;;3.00;2.70;;;27.90;49.90;;;;;;6115030;23;20382;-85
2022/06/27 01:54:14;;;;;;;3.70;2.87;;;27.90;50.00;;;;;;6113582;23;20425;-85
2022/06/27 01:56:42;;;;;;;2.97;2.77;;;27.90;50.00;;;;;;6113505;23;20385;-84
2022/06/27 01:59:09;;;;;;;2.70;2.50;;;27.90;50.00;;;;;;6114537;23;20409;-85
2022/06/27 02:01:35;;;;;;;2.90;2.70;;;27.80;50.00;;;;;;6113356;23;20381;-85
2022/06/27 02:04:01;;;;;;;2.67;2.47;;;27.80;49.90;;;;;;6114171;23;20433;-85
2022/06/27 02:06:29;;;;;;;2.93;2.73;;;27.80;50.00;;;;;;6114236;23;20404;-85
2022/06/27 02:08:57;;;;;;;2.90;2.70;;;27.80;49.50;;;;;;6114604;23;20405;-85
2022/06/27 02:11:24;;;;;;;2.93;2.73;;;27.80;50.00;;;;;;6116399;23;20402;-85
2022/06/27 02:13:50;;;;;;;3.07;2.77;;;27.80;50.00;;;;;;6116544;23;20737;-85
2022/06/27 02:16:18;;;;;;;3.10;2.90;;;27.80;50.10;;;;;;6115395;23;20386;-85
2022/06/27 02:18:45;;;;;;;3.10;2.90;;;27.80;50.10;;;;;;6115562;23;20149;-85
2022/06/27 02:21:13;;;;;;;3.43;3.10;;;27.80;50.00;;;;;;6114630;23;20841;-85
2022/06/27 02:23:40;;;;;;;2.60;2.40;;;27.90;50.00;;;;;;6114869;23;20389;-85
2022/06/27 02:26:08;;;;;;;3.13;2.93;;;27.90;50.00;;;;;;6114673;23;20390;-85
2022/06/27 02:28:35;;;;;;;2.93;2.73;;;27.90;50.00;;;;;;6090233;23;20390;-85
2022/06/27 02:31:05;;;;;;;3.00;2.80;;;27.90;50.00;;;;;;6114294;23;20390;-84
2022/06/27 02:33:45;;;;;;;3.07;2.87;;;27.90;50.00;;;;;;6116225;23;20464;-84
2022/06/27 02:36:15;;;;;;;2.77;2.57;;;27.90;50.50;;;;;;6114066;23;20424;-84
2022/06/27 02:38:43;;;;;;;2.90;2.70;;;27.80;49.80;;;;;;6115065;23;20377;-85
2022/06/27 02:41:17;;;;;;;3.00;2.80;;;27.90;49.90;;;;;;6113426;23;20421;-85
2022/06/27 02:43:53;;;;;;;3.00;2.80;;;27.90;49.90;;;;;;6114340;23;20453;-85
2022/06/27 02:46:19;;;;;;;2.83;2.63;;;27.90;49.90;;;;;;6113019;23;20392;-84
2022/06/27 02:48:49;;;;;;;2.40;2.30;;;27.90;49.90;;;;;;6113465;23;20449;-84
2022/06/27 02:51:22;;;;;;;2.60;2.40;;;27.90;49.80;;;;;;6112788;23;20374;-85
2022/06/27 02:54:11;;;;;;;2.27;2.17;;;27.90;49.80;;;;;;6112878;23;20384;-85
2022/06/27 02:56:45;;;;;;;2.70;2.50;;;27.90;49.80;;;;;;6112712;23;20418;-85
2022/06/27 02:59:13;;;;;;;2.70;2.50;;;27.90;49.80;;;;;;6112261;23;20350;-85
2022/06/27 03:01:43;;;;;;;2.87;2.67;;;27.90;49.80;;;;;;6112522;23;20445;-85
2022/06/27 03:04:09;;;;;;;2.80;2.60;;;27.90;49.80;;;;;;6112727;23;20370;-84
2022/06/27 03:06:36;;;;;;;3.07;2.87;;;27.90;49.90;;;;;;6114057;23;20442;-84
2022/06/27 03:09:02;;;;;;;3.00;2.80;;;27.90;49.90;;;;;;6114004;23;20374;-84
2022/06/27 03:11:28;;;;;;;2.13;2.03;;;27.90;49.90;;;;;;6115138;23;20381;-84
2022/06/27 03:13:55;;;;;;;2.50;2.30;;;27.90;49.90;;;;;;6113070;23;20841;-84
2022/06/27 03:16:22;;;;;;;2.70;2.50;;;27.90;50.00;;;;;;6114269;23;20238;-84
2022/06/27 03:18:50;;;;;;;2.70;2.50;;;27.90;50.00;;;;;;6113641;23;20389;-84
2022/06/27 03:21:20;;;;;;;2.47;2.27;;;27.90;50.00;;;;;;6114579;23;20362;-84
2022/06/27 03:23:47;;;;;;;2.77;2.50;;;27.90;50.00;;;;;;6113607;23;20374;-84
2022/06/27 03:26:14;;;;;;;3.00;2.70;;;27.90;50.00;;;;;;6115729;23;20370;-84
2022/06/27 03:28:40;;;;;;;2.77;2.57;;;27.90;50.00;;;;;;6113410;23;20417;-84
2022/06/27 03:31:06;;;;;;;3.40;2.70;;;27.90;50.60;;;;;;6113629;23;20449;-84
2022/06/27 03:33:34;;;;;;;2.53;2.33;;;27.90;50.10;;;;;;6113119;23;20386;-84
2022/06/27 03:36:00;;;;;;;2.43;2.23;;;27.90;50.10;;;;;;6113125;23;20426;-84
2022/06/27 03:38:26;;;;;;;2.93;2.73;;;27.90;50.10;;;;;;6114346;23;20449;-84
2022/06/27 03:40:51;;;;;;;3.23;2.93;;;27.90;50.10;;;;;;6022307;23;1641432;-84
2022/06/27 03:43:17;;;;;;;2.63;2.43;;;27.90;50.10;;;;;;6119499;23;20401;-84
2022/06/27 03:45:43;;;;;;;3.20;2.90;;;27.90;50.30;;;;;;6145199;23;20153;-84
2022/06/27 03:49:59;;;;;;;3.43;2.90;;;27.90;50.30;;;;;;6119212;23;20385;-84
2022/06/27 03:50:55;;;;;;;2.60;2.40;;;27.90;50.30;;;;;;6145039;23;20408;-84
2022/06/27 03:56:43;;;;;;;2.37;2.27;;;27.90;50.30;;;;;;6144583;23;20160;-84
2022/06/27 03:59:09;;;;;;;3.33;3.10;;;27.80;50.40;;;;;;6095681;23;20401;-84
2022/06/27 04:01:36;;;;;;;3.47;3.17;;;27.80;50.40;;;;;;6147288;23;20372;-84
2022/06/27 04:04:03;;;;;;;2.93;2.73;;;27.80;50.50;;;;;;6121099;23;20372;-85
2022/06/27 04:06:29;;;;;;;2.83;2.63;;;27.80;50.50;;;;;;6121091;23;20157;-85
2022/06/27 04:08:55;;;;;;;2.60;2.40;;;27.80;50.60;;;;;;6119798;23;20377;-85
2022/06/27 04:11:21;;;;;;;3.00;2.80;;;27.90;50.60;;;;;;6120055;23;20380;-85
2022/06/27 04:13:47;;;;;;;3.10;2.90;;;27.80;50.60;;;;;;6146908;23;20200;-85
2022/06/27 04:16:12;;;;;;;2.77;2.57;;;27.80;50.50;;;;;;6120621;23;20191;-84
2022/06/27 04:18:38;;;;;;;3.40;3.20;;;27.90;50.60;;;;;;6121168;23;20229;-84
2022/06/27 04:21:04;;;;;;;3.00;2.70;;;27.80;50.60;;;;;;6146828;23;20212;-85
2022/06/27 04:23:30;;;;;;;6.87;3.10;;;27.80;50.80;;;;;;6119992;23;20233;-85
2022/06/27 04:25:56;;;;;;;3.50;3.20;;;27.90;50.90;;;;;;6121134;23;20385;-85
2022/06/27 04:28:32;;;;;;;3.50;3.20;;;27.90;51.10;;;;;;6120917;23;20213;-85
2022/06/27 04:31:00;;;;;;;4.10;3.80;;;27.90;51.10;;;;;;6097442;23;20172;-85
2022/06/27 04:33:26;;;;;;;4.07;3.40;;;27.90;51.00;;;;;;6147355;23;20381;-85
2022/06/27 04:36:03;;;;;;;3.67;3.37;;;27.90;51.20;;;;;;6147135;23;20509;-85
2022/06/27 04:45:12;;;;;;;3.33;3.03;;;27.80;51.70;;;;;;6148116;23;20439;-84
2022/06/27 04:47:42;;;;;;;2.90;2.70;;;27.80;52.00;;;;;;6117080;23;20397;-84
2022/06/27 04:50:17;;;;;;;4.30;3.90;;;27.80;52.00;;;;;;6122922;23;20381;-86
2022/06/27 04:52:43;;;;;;;6.03;3.50;;;27.80;51.80;;;;;;6147287;23;20456;-84
2022/06/27 04:55:14;;;;;;;3.30;3.00;;;27.80;51.90;;;;;;6147638;23;20412;-84
2022/06/27 04:57:42;;;;;;;3.40;3.10;;;27.80;51.80;;;;;;6122494;23;20411;-84
2022/06/27 05:00:12;;;;;;;3.50;3.10;;;27.80;51.80;;;;;;6122467;23;20385;-85
2022/06/27 05:02:52;;;;;;;3.30;3.00;;;27.80;51.60;;;;;;6123209;23;20813;-85
2022/06/27 05:05:35;;;;;;;3.63;3.33;;;27.80;51.50;;;;;;6146699;23;20357;-85
2022/06/27 05:08:04;;;;;;;3.23;2.87;;;27.80;51.50;;;;;;6122456;23;20807;-85
2022/06/27 05:10:32;;;;;;;3.83;3.53;;;27.80;51.40;;;;;;6120721;23;20385;-85
2022/06/27 05:12:59;;;;;;;3.33;3.00;;;27.90;51.40;;;;;;6148140;23;20377;-85
2022/06/27 05:15:27;;;;;;;2.97;2.77;;;27.80;51.30;;;;;;6146738;23;20423;-85
2022/06/27 05:17:55;;;;;;;3.13;2.93;;;27.80;51.40;;;;;;6122103;23;20413;-84
2022/06/27 05:20:22;;;;;;;3.37;3.07;;;27.90;51.40;;;;;;6099243;23;20221;-84
2022/06/27 05:22:48;;;;;;;3.20;3.00;;;27.90;51.30;;;;;;6099535;23;20396;-84
2022/06/27 05:25:15;;;;;;;3.03;2.83;;;27.90;51.20;;;;;;6123718;23;20389;-84
2022/06/27 05:27:41;;;;;;;3.87;3.27;;;27.90;51.10;;;;;;6123165;23;20164;-84
2022/06/27 05:30:10;;;;;;;3.40;3.10;;;27.90;51.10;;;;;;6099223;23;20393;-84
2022/06/27 05:32:36;;;;;;;2.90;2.60;;;27.90;51.10;;;;;;6123242;23;20399;-84
2022/06/27 05:35:06;;;;;;;3.10;2.80;;;27.90;51.10;;;;;;6148085;23;20404;-84
2022/06/27 05:37:32;;;;;;;3.33;3.13;;;27.90;51.00;;;;;;6122737;23;20180;-83
2022/06/27 05:39:59;;;;;;;2.97;2.77;;;27.90;51.00;;;;;;6122911;23;20369;-83
2022/06/27 05:42:27;;;;;;;3.33;3.13;;;27.90;50.90;;;;;;6099393;23;20393;-84
2022/06/27 05:44:54;;;;;;;3.30;3.00;;;27.90;50.90;;;;;;6123511;23;20401;-85
2022/06/27 05:47:30;;;;;;;2.70;2.50;;;27.90;50.80;;;;;;6148168;23;20373;-84
2022/06/27 05:49:58;;;;;;;3.40;3.10;;;28.00;50.90;;;;;;6093452;23;20500;-84
2022/06/27 05:52:24;;;;;;;2.87;2.67;;;28.00;50.90;;;;;;6119334;23;20385;-84
2022/06/27 05:54:58;;;;;;;2.90;2.70;;;28.00;50.80;;;;;;6118894;23;20413;-84
2022/06/27 05:57:26;;;;;;;2.80;2.60;;;28.00;50.90;;;;;;6118828;23;20377;-84
2022/06/27 05:59:55;;;;;;;3.07;2.87;;;28.00;50.70;;;;;;6117672;23;20464;-84
2022/06/27 06:02:22;;;;;;;2.70;2.50;;;28.00;50.70;;;;;;6116481;23;20404;-84
2022/06/27 06:04:48;;;;;;;3.10;2.90;;;28.00;50.70;;;;;;6118805;23;20441;-84
2022/06/27 06:07:14;;;;;;;3.00;2.80;;;28.00;50.60;;;;;;6119128;23;20374;-84
2022/06/27 06:09:41;;;;;;;3.00;2.80;;;28.00;50.60;;;;;;6117643;23;20432;-85
2022/06/27 06:12:09;;;;;;;3.47;2.80;;;28.00;50.60;;;;;;6119060;23;20382;-84
2022/06/27 06:14:36;;;;;;;3.50;3.00;;;28.00;50.60;;;;;;6117644;23;20430;-84
2022/06/27 06:17:04;;;;;;;2.83;2.63;;;28.00;50.60;;;;;;6116796;23;20453;-84
2022/06/27 06:19:35;;;;;;;2.93;2.73;;;28.00;50.60;;;;;;6094096;23;20390;-84
2022/06/27 06:22:01;;;;;;;3.10;2.60;;;28.00;50.50;;;;;;6118641;23;20361;-84
2022/06/27 06:24:27;;;;;;;3.20;2.90;;;28.00;50.50;;;;;;6117108;23;20394;-84
2022/06/27 06:26:56;;;;;;;2.60;2.37;;;28.00;50.50;;;;;;6117480;23;20420;-84
2022/06/27 06:29:23;;;;;;;4.80;3.13;;;28.10;50.60;;;;;;6118132;23;20379;-84
2022/06/27 06:31:52;;;;;;;2.87;2.67;;;28.10;50.60;;;;;;6117493;23;20842;-84
2022/06/27 06:34:18;;;;;;;2.63;2.43;;;28.10;50.60;;;;;;6116628;23;20437;-84
2022/06/27 06:36:45;;;;;;;2.70;2.50;;;28.10;50.60;;;;;;6118084;23;20374;-84
2022/06/27 06:39:12;;;;;;;2.47;2.20;;;28.10;50.60;;;;;;6118260;23;20366;-84
2022/06/27 06:41:39;;;;;;;3.00;2.70;;;28.10;50.60;;;;;;6093438;23;20405;-84
2022/06/27 06:44:07;;;;;;;3.30;3.07;;;28.10;50.60;;;;;;6116936;23;20708;-84
2022/06/27 06:46:34;;;;;;;3.20;3.00;;;28.10;50.60;;;;;;6117819;23;20393;-84
2022/06/27 06:49:09;;;;;;;3.23;3.03;;;28.10;50.60;;;;;;6135360;23;20393;-85
2022/06/27 06:51:39;;;;;;;2.70;2.50;;;28.10;50.60;;;;;;6099606;23;20380;-84
2022/06/27 06:54:08;;;;;;;2.80;2.60;;;28.10;50.60;;;;;;6122205;23;20377;-85
2022/06/27 06:56:36;;;;;;;2.90;2.70;;;28.10;50.60;;;;;;6122023;23;20384;-85
2022/06/27 06:59:03;;;;;;;2.70;2.47;;;28.10;50.60;;;;;;6122230;23;20381;-85
2022/06/27 07:01:33;;;;;;;2.73;2.53;;;28.10;50.60;;;;;;6147985;23;20373;-84
2022/06/27 07:03:59;;;;;;;2.53;2.33;;;28.10;50.60;;;;;;6121983;23;20401;-85
2022/06/27 07:06:26;;;;;;;2.93;2.73;;;28.10;50.60;;;;;;6122597;23;20388;-85
2022/06/27 07:08:58;;;;;;;3.50;3.20;;;28.10;50.60;;;;;;6148055;23;20377;-85
2022/06/27 07:11:29;;;;;;;3.07;2.87;;;28.10;50.60;;;;;;6122314;23;20377;-85
2022/06/27 07:13:56;;;;;;;3.03;2.83;;;28.10;50.60;;;;;;6121628;23;20411;-85
2022/06/27 07:16:26;;;;;;;2.80;2.60;;;28.10;50.60;;;;;;6147183;23;20378;-85
2022/06/27 07:18:54;;;;;;;3.07;2.87;;;28.10;50.60;;;;;;6147522;23;20368;-85
2022/06/27 07:21:26;;;;;;;3.03;2.73;;;28.10;50.50;;;;;;6146696;23;20363;-85
2022/06/27 07:23:53;;;;;;;3.23;3.03;;;28.10;50.60;;;;;;6147493;23;20365;-85
2022/06/27 07:26:20;;;;;;;2.93;2.73;;;28.10;50.50;;;;;;6120659;23;20396;-85
2022/06/27 07:28:47;;;;;;;3.00;2.80;;;28.10;50.50;;;;;;6122117;23;20450;-84
2022/06/27 07:31:14;;;;;;;2.80;2.60;;;28.10;50.60;;;;;;6122972;23;20380;-84
2022/06/27 07:33:44;;;;;;;2.80;2.60;;;28.10;50.60;;;;;;6123518;23;20711;-84
2022/06/27 07:36:18;;;;;;;3.03;2.83;;;28.10;50.50;;;;;;6124498;23;20444;-84
2022/06/27 07:38:52;;;;;;;3.10;2.90;;;28.10;50.60;;;;;;6124837;23;20384;-84
2022/06/27 07:41:20;;;;;;;3.00;2.80;;;28.10;50.60;;;;;;6149699;23;20360;-84
2022/06/27 07:43:51;;;;;;;3.17;2.97;;;28.10;50.60;;;;;;6124869;23;20364;-84
2022/06/27 07:46:20;;;;;;;2.80;2.60;;;28.10;50.60;;;;;;6149796;23;20353;-84
2022/06/27 07:48:47;;;;;;;3.50;3.30;;;28.10;50.50;;;;;;6118246;23;20465;-84
2022/06/27 07:51:19;;;;;;;2.70;2.50;;;28.10;50.60;;;;;;6119277;23;20473;-84
2022/06/27 07:53:46;;;;;;;3.00;2.80;;;28.10;50.50;;;;;;6119054;23;20389;-84
2022/06/27 07:56:14;;;;;;;3.67;3.03;;;28.10;50.60;;;;;;6119084;23;20436;-84
2022/06/27 07:58:43;;;;;;;3.50;3.20;;;28.10;50.60;;;;;;6118828;23;20385;-84
2022/06/27 08:01:16;;;;;;;3.07;2.87;;;28.10;50.60;;;;;;6119049;23;20449;-83
2022/06/27 08:03:44;;;;;;;3.23;2.93;;;28.10;50.70;;;;;;6118484;23;20385;-84
2022/06/27 08:06:29;;;;;;;3.07;2.87;;;28.10;50.70;;;;;;6120091;23;20378;-84
2022/06/27 08:09:03;;;;;;;2.93;2.73;;;28.20;50.70;;;;;;6119067;23;20389;-84
2022/06/27 08:11:32;;;;;;;3.23;3.03;;;28.10;50.70;;;;;;6120261;23;20449;-84
2022/06/27 08:14:03;;;;;;;3.40;3.20;;;28.10;50.70;;;;;;6118902;23;20441;-83
2022/06/27 08:16:30;;;;;;;3.13;2.93;;;28.10;50.70;;;;;;6120226;23;20369;-83
2022/06/27 08:18:57;;;;;;;3.10;2.90;;;28.10;50.70;;;;;;6119644;23;20397;-83
2022/06/27 08:21:25;;;;;;;3.43;3.20;;;28.20;50.80;;;;;;6118609;23;20382;-83
2022/06/27 08:23:56;;;;;;;3.43;3.17;;;28.20;50.70;;;;;;6118143;23;20864;-83
2022/06/27 08:26:30;;;;;;;3.60;3.30;;;28.20;50.80;;;;;;6118677;23;20378;-85
2022/06/27 08:28:58;;;;;;;3.27;3.00;;;28.20;50.80;;;;;;6120455;23;20362;-84
2022/06/27 08:31:27;;;;;;;4.13;3.70;;;28.20;50.80;;;;;;6119766;23;20358;-84
2022/06/27 08:34:03;;;;;;;3.30;3.00;;;28.20;50.70;;;;;;6120048;23;20377;-84
2022/06/27 08:36:30;;;;;;;4.30;4.00;;;28.20;50.80;;;;;;6118182;23;20402;-83
2022/06/27 08:38:57;;;;;;;4.00;3.70;;;28.20;50.80;;;;;;6118103;23;20386;-83
2022/06/27 08:41:24;;;;;;;3.67;3.37;;;28.20;50.80;;;;;;6119875;23;20370;-84
2022/06/27 08:44:00;;;;;;;3.90;3.50;;;28.20;50.80;;;;;;6118744;23;20397;-85
2022/06/27 08:46:30;;;;;;;3.80;3.50;;;28.20;50.80;;;;;;6095780;23;20453;-84
2022/06/27 08:48:57;;;;;;;3.53;3.20;;;28.20;50.80;;;;;;6117971;23;20464;-85
2022/06/27 08:51:26;;;;;;;3.90;3.60;;;28.20;50.80;;;;;;6118790;23;20449;-84
2022/06/27 08:53:54;;;;;;;3.70;3.40;;;28.20;50.80;;;;;;6092267;23;20390;-84
2022/06/27 08:56:20;;;;;;;4.00;3.70;;;28.20;50.80;;;;;;6118585;23;20492;-84
2022/06/27 08:58:48;;;;;;;3.07;2.87;;;28.20;50.80;;;;;;6118646;23;20385;-84
2022/06/27 09:01:19;;;;;;;6.13;3.77;;;28.20;50.80;;;;;;6094534;23;20382;-84
2022/06/27 09:04:11;;;;;;;3.67;3.37;;;28.20;50.80;;;;;;6119033;23;20378;-84
2022/06/27 09:06:46;;;;;;;3.00;2.80;;;28.20;50.80;;;;;;6118753;23;20378;-84
2022/06/27 09:09:15;;;;;;;3.20;3.00;;;28.20;50.90;;;;;;6119918;23;20361;-84
2022/06/27 09:11:46;;;;;;;3.03;2.83;;;28.20;50.90;;;;;;6119995;23;20436;-84
2022/06/27 09:14:35;;;;;;;2.80;2.60;;;28.20;50.90;;;;;;6118389;23;20442;-84
2022/06/27 09:17:04;;;;;;;3.40;3.10;;;28.20;50.90;;;;;;6118313;23;20869;-84
2022/06/27 09:19:59;;;;;;;4.90;3.23;;;28.20;50.90;;;;;;6118483;23;20381;-84
2022/06/27 09:22:30;;;;;;;3.10;2.90;;;28.20;50.90;;;;;;6118817;23;20378;-84
2022/06/27 09:25:06;;;;;;;3.43;3.23;;;28.20;50.90;;;;;;6117047;23;20390;-84
2022/06/27 09:27:44;;;;;;;3.20;3.00;;;28.20;50.90;;;;;;6118007;23;20401;-84
2022/06/27 09:30:21;;;;;;;3.07;2.87;;;28.20;50.90;;;;;;6116689;23;20445;-84
2022/06/27 09:32:49;;;;;;;2.90;2.60;;;28.20;50.90;;;;;;6117556;23;20389;-84
2022/06/27 09:35:23;;;;;;;3.47;3.27;;;28.20;50.90;;;;;;6117435;23;20427;-84
2022/06/27 09:37:57;;;;;;;3.07;2.77;;;28.20;50.90;;;;;;6116852;23;20385;-85
2022/06/27 09:40:27;;;;;;;2.87;2.67;;;28.20;50.80;;;;;;6119451;23;20358;-84
2022/06/27 09:42:55;;;;;;;3.10;2.90;;;28.20;50.80;;;;;;6119070;23;20374;-84
2022/06/27 09:45:28;;;;;;;2.53;2.33;;;28.20;50.80;;;;;;6117937;23;20724;-84
2022/06/27 09:47:58;;;;;;;3.23;3.00;;;28.20;50.80;;;;;;6121098;23;20488;-84
2022/06/27 09:50:29;;;;;;;2.60;2.40;;;28.20;50.80;;;;;;6123434;23;20381;-84
2022/06/27 09:52:56;;;;;;;3.43;3.13;;;28.20;50.90;;;;;;6123406;23;20396;-84
2022/06/27 09:55:25;;;;;;;2.97;2.77;;;28.20;50.90;;;;;;6148233;23;20416;-84
2022/06/27 09:58:19;;;;;;;3.00;2.80;;;28.20;50.90;;;;;;6143682;23;20388;-83
2022/06/27 10:00:48;;;;;;;2.80;2.60;;;28.20;50.90;;;;;;6098906;23;20385;-84
2022/06/27 10:03:20;;;;;;;3.90;3.20;;;28.20;50.80;;;;;;6145685;23;20373;-85
2022/06/27 10:05:52;;;;;;;3.17;2.87;;;28.20;51.10;;;;;;6145991;23;20377;-84
2022/06/27 10:08:21;;;;;;;2.83;2.60;;;28.20;51.20;;;;;;6121711;23;20476;-85
2022/06/27 10:11:20;;;;;;;4.27;2.80;;;28.20;51.20;;;;;;6120681;23;20407;-86
2022/06/27 10:14:18;;;;;;;4.20;3.90;;;28.20;51.10;;;;;;6145973;23;20363;-86
2022/06/27 10:17:06;;;;;;;2.83;2.60;;;28.20;51.00;;;;;;6120292;23;20381;-86
2022/06/27 10:19:53;;;;;;;2.90;2.70;;;28.20;51.10;;;;;;6146001;23;20349;-86
2022/06/27 10:22:32;;;;;;;2.60;2.40;;;28.20;51.30;;;;;;6118520;23;20369;-86
2022/06/27 10:25:29;;;;;;;2.87;2.67;;;28.20;51.20;;;;;;6119183;23;20413;-86
2022/06/27 10:35:05;;;;;;;3.73;2.67;;;28.20;51.30;;;;;;6056910;23;20423;-85
2022/06/27 10:37:44;;;;;;;3.20;3.00;;;28.20;51.40;;;;;;6057816;23;20383;-85
2022/06/27 10:40:23;;;;;;;3.10;2.90;;;28.20;51.50;;;;;;6033680;23;20391;-85
2022/06/27 10:42:57;;;;;;;3.50;2.90;;;28.20;51.60;;;;;;6056432;23;20470;-85
2022/06/27 10:45:27;;;;;;;4.13;3.10;;;28.20;51.60;;;;;;6032477;23;20395;-85
2022/06/27 10:48:02;;;;;;;2.60;2.40;;;28.20;51.50;;;;;;6032328;23;20392;-86
2022/06/27 10:50:40;;;;;;;3.10;2.90;;;28.20;51.50;;;;;;6033307;23;20371;-85
2022/06/27 10:53:41;;;;;;;;;;;;;;;;;;;;;
2022/06/27 10:56:31;;;;;;;3.70;3.40;;;28.20;51.50;;;;;;6056716;23;20415;-86
2022/06/27 11:02:31;;;;;;;4.13;3.63;;;28.20;51.80;;;;;;6000619;24;20405;-86
2022/06/27 11:05:05;;;;;;;4.07;3.77;;;28.20;51.90;;;;;;5983252;23;20407;-85
2022/06/27 11:17:09;;;;;;;4.40;4.10;;;28.20;52.00;;;;;;6055088;23;20371;-87
2022/06/27 11:33:41;;;;;;;4.83;4.33;;;28.20;51.90;;;;;;5915160;24;20409;-87
2022/06/27 11:40:11;;;;;;;4.80;4.40;;;28.20;51.80;;;;;;6025126;23;20422;-87
2022/06/27 11:43:04;;;;;;;5.33;4.83;;;28.20;51.80;;;;;;5997027;23;20384;-87
2022/06/27 11:45:42;;;;;;;5.13;4.70;;;28.10;51.70;;;;;;6025532;23;20389;-86
2022/06/27 11:48:14;;;;;;;4.63;4.13;;;28.20;51.70;;;;;;6003922;23;20392;-86
2022/06/27 11:50:41;;;;;;;4.83;4.33;;;28.20;51.70;;;;;;5981586;23;20376;-86
2022/06/27 12:00:58;;;;;;;4.50;4.03;;;28.20;51.60;;;;;;6082249;23;20378;-85
2022/06/27 13:11:42;;;;;;;5.57;4.37;;;28.10;51.70;;;;;;5811713;24;20490;-84
2022/06/27 13:14:08;;;;;;;4.33;4.00;;;28.10;51.90;;;;;;5789975;24;20449;-84
2022/06/27 13:16:35;;;;;;;4.40;4.00;;;28.10;51.80;;;;;;5817014;24;20411;-84
2022/06/27 13:19:04;;;;;;;4.83;4.43;;;28.10;51.70;;;;;;5864007;24;20406;-85
2022/06/27 13:21:31;;;;;;;3.97;3.60;;;28.20;51.80;;;;;;5842557;24;20438;-85
2022/06/27 13:24:04;;;;;;;4.40;4.10;;;28.20;51.80;;;;;;5864166;24;20500;-85
2022/06/27 13:26:40;;;;;;;4.13;3.83;;;28.20;51.80;;;;;;5897351;24;20388;-85
2022/06/27 13:29:06;;;;;;;4.00;3.63;;;28.20;51.90;;;;;;5919413;24;20365;-84
2022/06/27 13:31:40;;;;;;;4.20;3.90;;;28.20;51.90;;;;;;5919662;24;20388;-84
2022/06/27 13:34:07;;;;;;;3.73;3.43;;;28.20;51.90;;;;;;5919443;24;20443;-84
2022/06/27 13:36:34;;;;;;;4.13;3.77;;;28.20;51.80;;;;;;5899065;24;20404;-85
2022/06/27 13:39:00;;;;;;;4.27;3.87;;;28.30;51.90;;;;;;5951605;24;20383;-85
2022/06/27 13:41:28;;;;;;;3.93;3.63;;;28.30;52.00;;;;;;5974332;24;20382;-84
2022/06/27 13:43:54;;;;;;;4.20;3.80;;;28.30;52.00;;;;;;5978411;23;20185;-85
2022/06/27 13:46:29;;;;;;;3.73;3.43;;;28.30;52.00;;;;;;6147947;23;20381;-85
2022/06/27 13:52:26;;;;;;;3.57;3.27;;;28.40;52.00;;;;;;6144310;23;20380;-82
2022/06/27 13:55:38;;;;;;;3.70;3.40;;;28.30;52.00;;;;;;6117242;23;20484;-83
2022/06/27 13:58:07;;;;;;;3.67;3.20;;;28.30;52.00;;;;;;6117773;23;20432;-83
2022/06/27 14:03:54;;;;;;;3.70;3.40;;;28.40;52.00;;;;;;6138860;23;20397;-84
2022/06/27 14:09:04;;;;;;;3.10;2.83;;;28.40;52.00;;;;;;6121539;23;20148;-82
2022/06/27 14:11:30;;;;;;;3.50;3.20;;;28.40;52.00;;;;;;6117743;23;20389;-82
2022/06/27 14:13:56;;;;;;;3.37;2.80;;;28.40;51.90;;;;;;6144446;23;20153;-82
2022/06/27 14:16:23;;;;;;;3.10;2.70;;;28.40;51.90;;;;;;6117805;23;20244;-82
2022/06/27 14:18:56;;;;;;;3.20;3.00;;;28.40;52.00;;;;;;6143067;23;20161;-82
2022/06/27 14:21:21;;;;;;;3.10;2.90;;;28.40;51.90;;;;;;6144443;23;20574;-81
2022/06/27 14:23:47;;;;;;;3.70;3.40;;;28.40;51.90;;;;;;6141734;23;20385;-82
2022/06/27 14:26:16;;;;;;;3.57;3.27;;;28.50;51.90;;;;;;6143138;23;20149;-82
2022/06/27 14:28:42;;;;;;;2.77;2.57;;;28.50;51.90;;;;;;6118194;23;20384;-83
2022/06/27 14:31:17;;;;;;;2.93;2.73;;;28.50;51.80;;;;;;6143803;23;20387;-82
2022/06/27 14:33:46;;;;;;;3.13;2.93;;;28.50;51.80;;;;;;6118344;23;20456;-82
2022/06/27 14:36:18;;;;;;;3.33;2.90;;;28.50;51.80;;;;;;6094220;23;20425;-82
2022/06/27 14:45:22;;;;;;;2.70;2.50;;;28.50;51.60;;;;;;6055613;23;20887;-82
2022/06/27 14:47:49;;;;;;;2.77;2.57;;;28.50;51.70;;;;;;6031552;23;20389;-83
2022/06/27 14:50:15;;;;;;;3.17;2.17;;;28.50;51.70;;;;;;6030292;23;20394;-82
2022/06/27 14:52:41;;;;;;;2.30;2.10;;;28.50;51.60;;;;;;6030708;23;20383;-82
2022/06/27 14:55:11;;;;;;;2.90;2.60;;;28.50;51.60;;;;;;6029981;23;20431;-83
2022/06/27 14:57:39;;;;;;;2.43;2.23;;;28.50;51.60;;;;;;6030285;23;20384;-83
2022/06/27 15:00:06;;;;;;;2.10;1.90;;;28.50;51.60;;;;;;6053422;23;20379;-82
2022/06/27 15:02:31;;;;;;;1.80;1.70;;;28.60;51.60;;;;;;6030253;23;20375;-82
2022/06/27 15:05:09;;;;;;;2.37;2.07;;;28.60;51.60;;;;;;6053360;23;20835;-82
2022/06/27 15:07:36;;;;;;;2.50;2.07;;;28.60;51.50;;;;;;6053677;23;20159;-82
2022/06/27 15:10:05;;;;;;;2.57;2.33;;;28.60;51.50;;;;;;6031480;23;20399;-82
2022/06/27 15:12:32;;;;;;;2.00;1.90;;;28.60;51.50;;;;;;6087901;23;20395;-82
2022/06/27 15:18:21;;;;;;;2.97;2.73;;;28.60;51.50;;;;;;6144929;23;20432;-82
2022/06/27 15:20:47;;;;;;;2.10;1.90;;;28.60;51.50;;;;;;6119673;23;20685;-81
2022/06/27 15:23:13;;;;;;;1.73;1.60;;;28.60;51.50;;;;;;6119687;23;20392;-82
2022/06/27 15:25:40;;;;;;;2.20;2.00;;;28.60;51.40;;;;;;6120162;23;20389;-82